Time;durP1;ratioP1;P1;durP2;ratioP2;P2;SDS_P1;SDS_P2;PMS_P1;PMS_P2;Temp;Humidity;BMP_temperature;BMP_pressure;BME280_temperature;BME280_humidity;BME280_pressure;Samples;Min_cycle;Max_cycle;Signal;HPM_P1;HPM_P2
2023/03/25 00:01:54;;;;;;;;;5.50;4.25;;;;;11.51;58.55;100434.44;5073505;27;45944;-68
2023/03/25 00:04:20;;;;;;;;;1.00;1.00;;;;;11.65;58.71;100465.88;5068218;27;45737;-74
2023/03/25 00:06:45;;;;;;;;;3.00;1.00;;;;;11.57;58.27;100466.66;5073123;27;45567;-72
2023/03/25 00:09:11;;;;;;;;;2.00;2.00;;;;;11.67;59.09;100474.84;5069856;27;45659;-72
2023/03/25 00:11:36;;;;;;;;;24.00;16.50;;;;;11.66;58.52;100483.75;5073209;27;45323;-69
2023/03/25 00:14:03;;;;;;;;;3.75;2.50;;;;;11.66;58.64;100483.75;5073012;27;45425;-76
2023/03/25 00:16:28;;;;;;;;;5.00;3.75;;;;;11.34;58.70;100433.25;5071352;27;45435;-69
2023/03/25 00:18:54;;;;;;;;;5.25;2.50;;;;;11.64;58.76;100481.03;5071692;27;46467;-72
2023/03/25 00:21:20;;;;;;;;;1.00;1.00;;;;;11.66;58.80;100475.72;5064953;28;45378;-72
2023/03/25 00:23:45;;;;;;;;;2.50;1.00;;;;;11.68;59.00;100482.00;5072133;27;45365;-76
2023/03/25 00:26:11;;;;;;;;;5.00;2.00;;;;;11.69;58.43;100487.38;5069621;27;45557;-75
2023/03/25 00:28:37;;;;;;;;;3.00;3.00;;;;;11.70;59.21;100488.28;5069620;28;46115;-77
2023/03/25 00:31:06;;;;;;;;;7.50;2.00;;;;;11.60;59.89;100465.81;5076968;27;45640;-72
2023/03/25 00:33:32;;;;;;;;;4.00;3.00;;;;;11.60;59.37;100477.41;5064247;28;45465;-75
2023/03/25 00:36:00;;;;;;;;;2.75;2.75;;;;;11.63;59.63;100476.53;5077202;27;45348;-74
2023/03/25 00:38:32;;;;;;;;;2.00;1.00;;;;;11.62;59.70;100472.97;5069768;27;46513;-76
2023/03/25 00:40:58;;;;;;;;;6.00;2.67;;;;;11.65;59.64;100466.78;5064723;28;45443;-74
2023/03/25 00:43:24;;;;;;;;;6.00;3.00;;;;;11.40;59.75;100428.91;5074843;27;45373;-71
2023/03/25 00:45:54;;;;;;;;;5.67;3.67;;;;;11.62;59.67;100462.28;5069410;28;45267;-75
2023/03/25 00:48:19;;;;;;;;;1.00;1.00;;;;;11.61;59.60;100460.50;5076656;27;45699;-76
2023/03/25 00:50:47;;;;;;;;;2.33;1.33;;;;;11.61;59.90;100462.25;5075125;27;45558;-73
2023/03/25 00:53:12;;;;;;;;;3.00;1.67;;;;;11.64;59.74;100472.13;5075742;27;45463;-71
2023/03/25 00:55:38;;;;;;;;;2.33;1.00;;;;;11.63;60.29;100473.88;5075502;27;45480;-74
2023/03/25 00:58:04;;;;;;;;;3.67;2.00;;;;;11.60;60.59;100471.16;5075595;27;45969;-72
2023/03/25 01:00:30;;;;;;;;;6.00;3.00;;;;;11.60;60.58;100461.34;5075961;27;45510;-72
2023/03/25 01:02:55;;;;;;;;;7.00;3.33;;;;;11.65;60.93;100487.28;5076535;27;45546;-72
2023/03/25 01:05:20;;;;;;;;;3.00;2.00;;;;;11.65;60.72;100482.84;5067567;27;45530;-70
2023/03/25 01:07:48;;;;;;;;;5.67;4.33;;;;;11.65;61.22;100480.19;5063991;27;46093;-75
2023/03/25 01:10:14;;;;;;;;;12.00;10.75;;;;;11.65;60.68;100481.94;5076642;27;45599;-69
2023/03/25 01:12:39;;;;;;;;;7.67;4.67;;;;;11.67;60.37;100474.84;5074390;27;45798;-72
2023/03/25 01:15:05;;;;;;;;;6.00;4.00;;;;;11.66;61.47;100471.25;5076592;27;45446;-70
2023/03/25 01:17:31;;;;;;;;;4.33;2.67;;;;;11.69;60.46;100457.94;5076393;27;46573;-75
2023/03/25 01:19:56;;;;;;;;;6.00;3.00;;;;;11.60;61.00;100445.31;5076541;27;45356;-75
2023/03/25 01:22:22;;;;;;;;;3.00;2.00;;;;;11.75;60.13;100489.28;5076020;27;45215;-72
2023/03/25 01:24:47;;;;;;;;;3.33;2.00;;;;;11.62;60.91;100466.75;5062660;28;45382;-73
2023/03/25 01:27:12;;;;;;;;;3.00;1.00;;;;;11.73;61.07;100491.00;5072666;28;46106;-68
2023/03/25 01:29:38;;;;;;;;;2.00;1.00;;;;;11.65;61.21;100473.91;5076609;27;45529;-73
2023/03/25 01:32:03;;;;;;;;;5.33;1.00;;;;;11.52;60.95;100452.28;5074559;28;45477;-70
2023/03/25 01:34:32;;;;;;;;;2.67;1.00;;;;;11.68;61.56;100474.88;5076387;27;45273;-72
2023/03/25 01:36:58;;;;;;;;;3.00;2.00;;;;;11.58;61.50;100449.72;5071414;28;46370;-67
2023/03/25 01:39:23;;;;;;;;;1.67;1.67;;;;;11.58;61.10;100446.13;5067060;28;46154;-68
2023/03/25 01:41:49;;;;;;;;;2.67;1.00;;;;;11.70;61.71;100466.88;5075645;27;45314;-66
2023/03/25 01:44:18;;;;;;;;;4.00;2.00;;;;;11.67;61.76;100469.50;5073675;27;45576;-72
2023/03/25 01:46:44;;;;;;;;;6.00;2.00;;;;;11.66;61.99;100467.69;5071813;28;46369;-73
2023/03/25 01:49:20;;;;;;;;;1.67;1.00;;;;;11.55;61.98;100447.00;5075926;27;45554;-75
2023/03/25 01:51:48;;;;;;;;;4.67;2.00;;;;;11.69;61.78;100462.41;5075524;27;45440;-75
2023/03/25 01:54:16;;;;;;;;;3.00;2.00;;;;;11.64;62.36;100445.34;5072654;27;45519;-76
2023/03/25 01:56:45;;;;;;;;;4.00;1.00;;;;;11.68;62.91;100452.53;5063357;28;45501;-74
2023/03/25 01:59:13;;;;;;;;;0.00;0.00;;;;;11.58;62.19;100420.31;5076282;28;45384;-72
2023/03/25 02:01:38;;;;;;;;;4.33;1.00;;;;;11.71;63.04;100450.81;5076375;27;45392;-75
2023/03/25 02:04:10;;;;;;;;;3.67;1.00;;;;;11.69;63.14;100440.97;5074588;28;45384;-74
2023/03/25 02:06:44;;;;;;;;;1.00;1.00;;;;;11.69;62.76;100443.66;5072481;28;46183;-72
2023/03/25 02:09:12;;;;;;;;;1.00;1.00;;;;;11.61;62.65;100436.41;5075280;28;45496;-73
2023/03/25 02:11:38;;;;;;;;;3.33;1.67;;;;;11.66;62.59;100451.63;5068044;28;45701;-74
2023/03/25 02:14:11;;;;;;;;;0.67;0.67;;;;;11.61;62.58;100448.88;5068757;28;45500;-74
2023/03/25 02:16:42;;;;;;;;;3.00;2.00;;;;;11.63;63.18;100457.81;5074607;27;45582;-70
2023/03/25 02:19:31;;;;;;;;;5.33;3.00;;;;;11.62;63.26;100442.66;5074879;27;45528;-72
2023/03/25 02:22:24;;;;;;;;;4.00;1.00;;;;;11.63;63.99;100441.75;5074528;27;45643;-70
2023/03/25 02:25:11;;;;;;;;;0.00;0.00;;;;;11.60;64.04;100437.28;5068078;27;45530;-72
2023/03/25 02:27:58;;;;;;;;;3.00;1.33;;;;;11.59;64.08;100439.91;5066628;28;46157;-71
2023/03/25 02:30:35;;;;;;;;;1.00;0.00;;;;;11.54;64.57;100434.50;5071308;28;45439;-67
2023/03/25 02:33:40;;;;;;;;;0.00;0.00;;;;;11.55;64.31;100438.97;5070107;27;45514;-71
2023/03/25 02:36:39;;;;;;;;;6.00;2.33;;;;;11.55;64.38;100436.31;5064784;28;45685;-71
2023/03/25 02:39:17;;;;;;;;;1.67;1.00;;;;;11.53;64.61;100430.03;5062341;28;46160;-66
2023/03/25 02:41:57;;;;;;;;;7.00;3.00;;;;;11.50;64.52;100429.03;5072618;27;45533;-69
2023/03/25 02:44:31;;;;;;;;;3.33;1.00;;;;;11.42;63.96;100420.91;5061370;28;45693;-74
2023/03/25 02:47:02;;;;;;;;;3.67;3.00;;;;;11.48;64.81;100437.03;5074375;28;45484;-74
2023/03/25 02:49:32;;;;;;;;;2.67;1.67;;;;;11.30;64.40;100401.97;5072293;27;46752;-73
2023/03/25 02:52:08;;;;;;;;;7.33;0.00;;;;;11.31;64.93;100404.66;5065089;28;45512;-73
2023/03/25 02:54:38;;;;;;;;;6.33;3.67;;;;;11.44;64.42;100429.84;5067351;28;45615;-73
2023/03/25 02:57:06;;;;;;;;;3.00;1.67;;;;;11.43;64.88;100433.41;5067184;28;45560;-66
2023/03/25 02:59:37;;;;;;;;;2.00;2.00;;;;;11.42;65.02;100426.25;5066315;28;45481;-68
2023/03/25 03:02:07;;;;;;;;;2.00;2.00;;;;;11.40;64.81;100427.97;5074524;27;45558;-65
2023/03/25 03:04:43;;;;;;;;;2.33;2.33;;;;;11.45;65.29;100420.97;5071139;27;45314;-65
2023/03/25 03:07:11;;;;;;;;;2.33;1.00;;;;;11.48;64.99;100429.03;5074476;27;45486;-73
2023/03/25 03:09:44;;;;;;;;;1.00;1.00;;;;;11.48;64.79;100431.69;5073732;27;46450;-68
2023/03/25 03:12:35;;;;;;;;;3.33;1.67;;;;;11.49;64.81;100430.84;5074143;28;45567;-75
2023/03/25 03:15:21;;;;;;;;;0.67;0.67;;;;;11.50;64.50;100426.38;5062434;28;45506;-73
2023/03/25 03:18:25;;;;;;;;;6.00;1.00;;;;;11.50;64.58;100435.31;5072311;27;46065;-75
2023/03/25 03:21:12;;;;;;;;;2.67;1.00;;;;;11.49;64.71;100436.19;5073764;28;46388;-76
2023/03/25 03:23:58;;;;;;;;;3.33;1.00;;;;;11.46;64.50;100420.06;5060444;28;45524;-74
2023/03/25 03:26:42;;;;;;;;;3.67;1.00;;;;;11.50;64.90;100426.38;5066998;28;45394;-72
2023/03/25 03:29:37;;;;;;;;;1.33;1.33;;;;;11.52;64.73;100438.03;5073231;27;45640;-70
2023/03/25 03:32:21;;;;;;;;;8.00;6.00;;;;;11.48;64.59;100423.66;5061468;28;47142;-68
2023/03/25 03:34:58;;;;;;;;;2.67;1.00;;;;;11.52;64.80;100430.00;5067960;28;46082;-68
2023/03/25 03:37:35;;;;;;;;;3.00;1.00;;;;;11.51;64.41;100437.09;5074015;28;45337;-71
2023/03/25 03:40:05;;;;;;;;;5.00;2.00;;;;;11.50;64.92;100437.06;5073958;27;45353;-69
2023/03/25 03:42:41;;;;;;;;;2.00;1.00;;;;;11.50;64.46;100432.66;5073592;27;46269;-69
2023/03/25 03:45:15;;;;;;;;;2.00;1.00;;;;;11.47;65.11;100437.06;5064231;27;45542;-65
2023/03/25 03:47:46;;;;;;;;;2.33;2.33;;;;;11.41;64.44;100425.34;5073421;27;45488;-66
2023/03/25 03:50:19;;;;;;;;;4.67;0.00;;;;;11.36;64.42;100408.31;5071367;27;45697;-66
2023/03/25 03:53:01;;;;;;;;;3.33;2.00;;;;;11.46;64.15;100436.13;5073557;27;45995;-69
2023/03/25 03:55:36;;;;;;;;;3.00;1.00;;;;;11.35;64.51;100414.56;5062305;28;45388;-65
2023/03/25 03:58:14;;;;;;;;;5.00;3.00;;;;;11.36;64.28;100416.34;5062908;27;45697;-65
2023/03/25 04:00:49;;;;;;;;;2.00;2.00;;;;;11.43;64.86;100430.72;5073484;27;45487;-71
2023/03/25 04:03:24;;;;;;;;;2.67;1.00;;;;;11.41;64.02;100428.00;5073068;28;45782;-67
2023/03/25 04:05:59;;;;;;;;;2.00;1.00;;;;;11.42;64.35;100427.16;5073882;27;45561;-70
2023/03/25 04:08:36;;;;;;;;;2.33;1.00;;;;;11.47;64.15;100437.94;5073285;28;45492;-67
2023/03/25 04:11:08;;;;;;;;;5.67;1.00;;;;;11.46;64.55;100454.84;5072711;27;45538;-70
2023/03/25 04:13:37;;;;;;;;;3.33;1.67;;;;;11.34;63.97;100431.47;5072443;27;47082;-67
2023/03/25 04:16:03;;;;;;;;;2.67;0.00;;;;;11.47;64.58;100450.44;5071508;27;45418;-66
2023/03/25 04:18:32;;;;;;;;;4.00;2.00;;;;;11.37;64.04;100426.19;5073079;28;45307;-70
2023/03/25 04:20:59;;;;;;;;;4.33;1.00;;;;;11.38;63.97;100430.66;5069251;28;45375;-71
2023/03/25 04:23:28;;;;;;;;;5.00;2.00;;;;;11.47;63.08;100453.09;5072639;28;46308;-70
2023/03/25 04:25:55;;;;;;;;;3.00;3.00;;;;;11.56;63.18;100453.25;5074597;27;45430;-70
2023/03/25 04:28:22;;;;;;;;;1.00;0.00;;;;;11.60;63.20;100457.78;5074586;28;45494;-73
2023/03/25 04:30:54;;;;;;;;;2.00;2.00;;;;;11.47;62.02;100429.91;5068937;27;45480;-72
2023/03/25 04:33:20;;;;;;;;;3.00;0.00;;;;;11.64;62.79;100456.94;5075872;27;46964;-71
2023/03/25 04:35:45;;;;;;;;;0.00;0.00;;;;;11.65;62.53;100458.78;5057412;27;45488;-76
2023/03/25 04:38:11;;;;;;;;;3.33;0.67;;;;;11.66;62.41;100457.88;5068397;28;45628;-75
2023/03/25 04:40:39;;;;;;;;;2.00;1.00;;;;;11.68;61.72;100464.19;5073104;27;45632;-72
2023/03/25 04:43:05;;;;;;;;;2.33;1.00;;;;;11.65;62.18;100458.78;5066313;27;45532;-73
2023/03/25 04:45:35;;;;;;;;;2.33;1.00;;;;;11.65;61.30;100468.56;5061653;27;45316;-72
2023/03/25 04:48:00;;;;;;;;;0.33;0.33;;;;;11.59;61.72;100466.69;5072595;27;45437;-74
2023/03/25 04:50:27;;;;;;;;;0.00;0.00;;;;;11.69;62.05;100474.00;5068634;28;45667;-71
2023/03/25 04:52:56;;;;;;;;;5.00;1.00;;;;;11.69;62.26;100476.66;5066877;28;48087;-72
2023/03/25 04:55:24;;;;;;;;;0.67;0.00;;;;;11.65;61.36;100471.22;5072454;27;45797;-70
2023/03/25 04:57:50;;;;;;;;;1.67;0.33;;;;;11.60;61.46;100474.75;5071275;27;45384;-75
2023/03/25 05:00:19;;;;;;;;;3.33;1.00;;;;;11.68;61.25;100482.91;5040854;28;45603;-74
2023/03/25 05:02:49;;;;;;;;;2.00;1.00;;;;;11.63;61.36;100484.56;5067569;27;45557;-74
2023/03/25 05:05:17;;;;;;;;;2.67;0.00;;;;;11.49;61.30;100462.94;5068292;27;45596;-74
2023/03/25 05:07:48;;;;;;;;;1.67;0.00;;;;;11.62;61.66;100477.44;5069138;28;45448;-74
2023/03/25 05:10:17;;;;;;;;;2.67;0.33;;;;;11.69;61.17;100486.47;5073102;27;45635;-73
2023/03/25 05:12:43;;;;;;;;;1.00;1.00;;;;;11.71;61.41;100495.44;5070885;27;45595;-73
2023/03/25 05:15:10;;;;;;;;;0.00;0.00;;;;;11.64;60.52;100480.16;5072846;28;46158;-72
2023/03/25 05:17:36;;;;;;;;;2.00;0.00;;;;;11.76;60.77;100510.72;5066722;27;45365;-71
2023/03/25 05:20:05;;;;;;;;;0.00;0.00;;;;;11.65;60.69;100493.56;5074633;27;46124;-72
2023/03/25 05:22:31;;;;;;;;;1.33;1.00;;;;;11.73;60.63;100497.28;5075967;27;45582;-73
2023/03/25 05:24:57;;;;;;;;;1.67;0.33;;;;;11.78;58.86;100500.03;5075835;27;45586;-69
2023/03/25 05:27:22;;;;;;;;;1.33;0.33;;;;;11.69;58.77;100498.06;5075923;27;45752;-72
2023/03/25 05:29:47;;;;;;;;;4.00;1.00;;;;;11.76;59.22;100516.06;5065964;27;45420;-74
2023/03/25 05:32:16;;;;;;;;;3.33;0.33;;;;;11.61;59.57;100487.25;5066774;28;45415;-71
2023/03/25 05:34:45;;;;;;;;;1.00;1.00;;;;;11.69;59.60;100498.06;5076846;27;45491;-74
2023/03/25 05:37:11;;;;;;;;;2.00;1.00;;;;;11.80;58.83;100525.94;5063076;27;45483;-71
2023/03/25 05:39:37;;;;;;;;;1.00;1.00;;;;;11.61;58.58;100497.03;5076377;27;45638;-70
2023/03/25 05:42:03;;;;;;;;;2.00;0.00;;;;;11.75;58.20;100532.97;5075117;27;46263;-68
2023/03/25 05:44:28;;;;;;;;;1.00;1.00;;;;;11.76;57.21;100533.88;5075907;27;45519;-67
2023/03/25 05:46:53;;;;;;;;;4.33;1.00;;;;;11.68;56.77;100522.13;5075506;27;45568;-69
2023/03/25 05:49:20;;;;;;;;;4.00;1.00;;;;;11.72;58.17;100530.25;5065940;27;45478;-67
2023/03/25 05:51:48;;;;;;;;;3.00;0.00;;;;;11.83;57.17;100542.91;5073728;28;45983;-71
2023/03/25 05:54:14;;;;;;;;;2.67;0.00;;;;;11.83;57.61;100546.50;5073175;28;45888;-71
2023/03/25 05:56:41;;;;;;;;;1.33;0.67;;;;;11.86;57.94;100546.53;5075282;27;45487;-72
2023/03/25 05:59:07;;;;;;;;;2.33;1.00;;;;;11.82;57.47;100546.47;5075683;27;45816;-68
2023/03/25 06:01:33;;;;;;;;;3.00;1.67;;;;;11.84;57.59;100560.78;5074788;27;46858;-70
2023/03/25 06:04:00;;;;;;;;;0.33;0.33;;;;;11.83;58.01;100548.25;5075387;27;45416;-72
2023/03/25 06:06:26;;;;;;;;;0.33;0.00;;;;;11.77;58.00;100535.69;5074150;27;45347;-72
2023/03/25 06:08:51;;;;;;;;;0.00;0.00;;;;;11.83;58.22;100548.25;5072739;28;45464;-74
2023/03/25 06:11:18;;;;;;;;;0.00;0.00;;;;;11.90;57.99;100558.22;5075248;27;46304;-71
2023/03/25 06:13:48;;;;;;;;;0.67;0.67;;;;;11.80;57.50;100565.19;5075108;27;45491;-73
2023/03/25 06:16:21;;;;;;;;;3.00;0.00;;;;;11.55;58.22;100524.59;5074674;27;45431;-72
2023/03/25 06:18:54;;;;;;;;;3.33;0.33;;;;;11.71;58.88;100552.53;5067401;27;45362;-67
2023/03/25 06:21:25;;;;;;;;;7.33;1.00;;;;;11.62;58.71;100557.72;5071516;27;46426;-73
2023/03/25 06:23:52;;;;;;;;;1.00;0.67;;;;;11.71;58.66;100568.56;5070060;28;45392;-73
2023/03/25 06:26:20;;;;;;;;;2.67;0.00;;;;;11.54;59.00;100549.53;5075132;27;45279;-72
2023/03/25 06:28:46;;;;;;;;;1.00;1.00;;;;;11.74;59.11;100591.84;5073978;27;45585;-71
2023/03/25 06:31:15;;;;;;;;;4.00;1.00;;;;;11.73;59.42;100595.38;5073326;28;47258;-76
2023/03/25 06:33:41;;;;;;;;;3.67;2.00;;;;;11.58;59.07;100578.16;5074339;28;45553;-72
2023/03/25 06:36:07;;;;;;;;;3.00;1.33;;;;;11.58;58.78;100577.25;5071600;28;45248;-73
2023/03/25 06:38:33;;;;;;;;;0.00;0.00;;;;;11.65;60.09;100594.31;5074601;27;45524;-70
2023/03/25 06:40:58;;;;;;;;;2.00;0.00;;;;;11.53;59.64;100593.22;5074902;27;46070;-74
2023/03/25 06:43:23;;;;;;;;;3.67;0.00;;;;;11.60;59.61;100611.19;5068682;27;45318;-71
2023/03/25 06:45:50;;;;;;;;;6.67;1.00;;;;;11.53;59.51;100594.97;5070194;27;45277;-73
2023/03/25 06:48:15;;;;;;;;;1.00;1.00;;;;;11.59;60.32;100609.38;5068760;27;45674;-72
2023/03/25 06:50:41;;;;;;;;;0.00;0.00;;;;;11.60;59.98;100615.66;5073970;27;45914;-72
2023/03/25 06:53:06;;;;;;;;;0.67;0.67;;;;;11.60;60.08;100613.00;5061871;27;45498;-74
2023/03/25 06:55:31;;;;;;;;;3.67;1.00;;;;;11.57;60.65;100624.50;5071208;27;45486;-71
2023/03/25 06:57:57;;;;;;;;;3.00;0.00;;;;;11.46;60.87;100601.97;5072218;27;45610;-73
2023/03/25 07:00:25;;;;;;;;;2.67;1.00;;;;;11.51;59.97;100605.66;5076792;27;45460;-73
2023/03/25 07:02:50;;;;;;;;;0.67;0.67;;;;;11.47;60.87;100608.25;5077517;27;45357;-71
2023/03/25 07:05:16;;;;;;;;;1.67;1.67;;;;;11.44;60.29;100601.06;5091988;27;45467;-70
2023/03/25 07:07:41;;;;;;;;;2.00;0.33;;;;;11.52;60.54;100615.50;5071057;27;45569;-66
2023/03/25 07:10:07;;;;;;;;;2.00;0.00;;;;;11.57;59.94;100626.31;5071364;28;47320;-69
2023/03/25 07:12:33;;;;;;;;;3.00;2.00;;;;;11.60;60.52;100619.22;5070273;27;45495;-68
2023/03/25 07:14:59;;;;;;;;;2.33;1.00;;;;;11.53;59.91;100608.38;5067342;28;45403;-74
2023/03/25 07:17:24;;;;;;;;;1.00;1.00;;;;;11.62;59.80;100617.47;5073629;28;45596;-66
2023/03/25 07:19:50;;;;;;;;;0.67;0.00;;;;;11.78;59.66;100628.50;5069190;27;45615;-71
2023/03/25 07:22:15;;;;;;;;;2.00;1.00;;;;;11.77;59.23;100622.22;5069792;28;45455;-71
2023/03/25 07:24:41;;;;;;;;;3.33;2.33;;;;;11.70;60.16;100604.25;5071357;28;45434;-69
2023/03/25 07:27:10;;;;;;;;;1.00;1.00;;;;;11.90;59.51;100630.50;5067466;28;45438;-69
2023/03/25 07:29:35;;;;;;;;;3.33;3.00;;;;;11.91;58.42;100609.16;5070036;27;45574;-70
2023/03/25 07:32:01;;;;;;;;;2.00;0.00;;;;;11.95;58.62;100615.47;5071253;28;45549;-69
2023/03/25 07:34:26;;;;;;;;;0.33;0.33;;;;;12.01;59.16;100628.97;5065968;28;49314;-71
2023/03/25 07:36:52;;;;;;;;;4.67;2.00;;;;;12.09;58.12;100639.81;5069680;28;45408;-72
2023/03/25 07:39:17;;;;;;;;;1.33;1.33;;;;;12.13;58.15;100647.03;5066153;28;45955;-74
2023/03/25 07:41:43;;;;;;;;;3.67;1.33;;;;;12.02;57.65;100621.84;5069335;28;45543;-75
2023/03/25 07:44:08;;;;;;;;;1.33;0.00;;;;;12.21;57.43;100645.41;5074496;27;45506;-73
2023/03/25 07:46:34;;;;;;;;;3.00;0.00;;;;;12.19;56.58;100652.47;5069693;28;45455;-73
2023/03/25 07:48:59;;;;;;;;;3.00;1.00;;;;;12.15;56.61;100646.19;5072949;27;46555;-72
2023/03/25 07:51:25;;;;;;;;;2.00;0.67;;;;;12.25;57.29;100667.78;5069764;27;45424;-73
2023/03/25 07:53:50;;;;;;;;;1.00;1.00;;;;;12.10;56.16;100634.47;5068978;27;45496;-73
2023/03/25 07:56:15;;;;;;;;;4.33;2.00;;;;;12.25;56.43;100668.69;5069895;28;45423;-73
2023/03/25 07:58:41;;;;;;;;;2.00;1.00;;;;;11.96;55.88;100625.28;5074022;27;45449;-73
2023/03/25 08:01:07;;;;;;;;;3.00;2.00;;;;;12.34;55.93;100668.84;5072266;27;45515;-74
2023/03/25 08:03:33;;;;;;;;;4.00;0.00;;;;;12.39;56.18;100676.06;5062470;27;45489;-71
2023/03/25 08:06:00;;;;;;;;;5.00;1.00;;;;;12.13;55.39;100614.91;5061854;27;45688;-68
2023/03/25 08:08:28;;;;;;;;;2.67;1.00;;;;;12.52;54.84;100670.03;5072994;27;46387;-71
2023/03/25 08:10:54;;;;;;;;;4.67;2.33;;;;;12.39;55.39;100647.50;5073235;27;45342;-70
2023/03/25 08:13:20;;;;;;;;;3.67;2.00;;;;;12.58;54.67;100693.38;5073996;27;45400;-69
2023/03/25 08:15:45;;;;;;;;;2.00;0.67;;;;;12.35;54.37;100645.63;5072070;28;45680;-70
2023/03/25 08:18:11;;;;;;;;;3.00;0.00;;;;;12.62;53.82;100692.53;5064778;27;45451;-67
2023/03/25 08:20:36;;;;;;;;;1.00;1.00;;;;;12.62;53.66;100688.09;5068013;27;45566;-72
2023/03/25 08:23:02;;;;;;;;;4.00;1.00;;;;;12.61;53.81;100678.25;5066400;28;45374;-64
2023/03/25 08:25:29;;;;;;;;;3.67;2.00;;;;;12.67;53.54;100691.75;5070433;27;45504;-66
2023/03/25 08:27:54;;;;;;;;;3.33;2.00;;;;;12.70;54.04;100699.84;5085273;27;46941;-68
2023/03/25 08:30:21;;;;;;;;;0.33;0.00;;;;;12.72;53.43;100678.44;5068426;28;45543;-68
2023/03/25 08:32:53;;;;;;;;;1.00;1.00;;;;;12.76;52.72;100684.75;5066982;27;45517;-69
2023/03/25 08:35:22;;;;;;;;;3.00;1.00;;;;;12.89;53.51;100711.75;5072398;27;45595;-69
2023/03/25 08:37:48;;;;;;;;;3.00;0.33;;;;;12.94;53.42;100695.75;5070916;27;45330;-69
2023/03/25 08:40:18;;;;;;;;;1.33;1.33;;;;;12.98;52.47;100699.38;5069490;28;45283;-66
2023/03/25 08:42:45;;;;;;;;;1.67;1.33;;;;;12.94;53.31;100690.41;5072774;28;45495;-67
2023/03/25 08:45:11;;;;;;;;;2.00;2.00;;;;;12.85;52.67;100677.75;5074660;27;45398;-74
2023/03/25 08:47:36;;;;;;;;;3.00;1.00;;;;;13.01;52.01;100699.44;5074363;27;46491;-80
2023/03/25 08:50:02;;;;;;;;;0.00;0.00;;;;;12.99;52.10;100702.09;5071300;28;45529;-78
2023/03/25 08:52:28;;;;;;;;;2.00;1.00;;;;;12.95;53.01;100692.22;5078255;27;45411;-79
2023/03/25 08:54:53;;;;;;;;;0.00;0.00;;;;;12.75;51.97;100650.75;5077477;27;45487;-78
2023/03/25 08:57:21;;;;;;;;;2.33;0.33;;;;;12.86;51.67;100690.25;5076800;27;47291;-77
2023/03/25 08:59:47;;;;;;;;;1.33;0.33;;;;;12.93;52.30;100695.72;5076971;27;45627;-77
2023/03/25 09:02:12;;;;;;;;;4.67;4.33;;;;;12.90;51.91;100684.09;5077193;27;45343;-76
2023/03/25 09:04:38;;;;;;;;;1.33;0.00;;;;;13.00;52.27;100685.13;5076445;28;45574;-75
2023/03/25 09:07:04;;;;;;;;;4.67;0.00;;;;;12.93;52.07;100661.75;5076404;27;46277;-70
2023/03/25 09:09:29;;;;;;;;;1.33;1.33;;;;;13.01;51.43;100652.06;5077029;27;45902;-76
2023/03/25 09:11:55;;;;;;;;;1.00;0.67;;;;;13.31;50.93;100701.66;5077137;27;45345;-72
2023/03/25 09:14:21;;;;;;;;;2.67;2.00;;;;;13.35;50.06;100695.50;5076910;27;45508;-77
2023/03/25 09:16:46;;;;;;;;;3.33;1.33;;;;;13.35;50.67;100684.78;5077205;27;45789;-72
2023/03/25 09:19:11;;;;;;;;;3.00;0.00;;;;;13.44;50.96;100684.00;5077656;27;45416;-76
2023/03/25 09:21:37;;;;;;;;;5.67;2.00;;;;;13.51;49.94;100691.22;5073437;27;45685;-77
2023/03/25 09:24:03;;;;;;;;;0.00;0.00;;;;;13.62;49.35;100692.28;5065180;28;45494;-74
2023/03/25 09:26:29;;;;;;;;;0.67;0.33;;;;;13.63;49.40;100695.88;5066996;28;45499;-75
2023/03/25 09:28:55;;;;;;;;;1.00;1.00;;;;;13.49;48.80;100650.06;5071603;28;45434;-77
2023/03/25 09:31:21;;;;;;;;;1.00;0.67;;;;;13.83;48.82;100693.44;5074532;27;45470;-73
2023/03/25 09:33:47;;;;;;;;;2.00;0.67;;;;;13.94;48.41;100709.69;5067888;28;45797;-73
2023/03/25 09:36:12;;;;;;;;;8.33;4.33;;;;;13.93;48.37;100713.28;5069012;27;46101;-79
2023/03/25 09:38:38;;;;;;;;;3.00;2.00;;;;;13.68;48.67;100683.41;5077845;28;45238;-72
2023/03/25 09:41:22;;;;;;;;;0.00;0.00;;;;;13.79;48.43;100687.16;5065482;28;45700;-71
2023/03/25 09:43:47;;;;;;;;;3.00;1.00;;;;;13.98;48.46;100731.22;5066533;28;45362;-72
2023/03/25 09:46:13;;;;;;;;;1.67;1.67;;;;;13.99;47.76;100738.41;5069188;28;45437;-77
2023/03/25 09:48:41;;;;;;;;;0.67;0.67;;;;;13.85;48.24;100702.41;5073804;27;45771;-73
2023/03/25 09:51:20;;;;;;;;;2.00;0.00;;;;;13.80;48.22;100706.84;5071588;27;45349;-76
2023/03/25 09:53:55;;;;;;;;;1.67;0.67;;;;;13.91;48.22;100736.50;5063786;28;45596;-74
2023/03/25 09:56:24;;;;;;;;;1.00;1.00;;;;;13.89;48.51;100733.81;5071654;27;45601;-70
2023/03/25 09:59:12;;;;;;;;;1.00;0.00;;;;;13.90;49.13;100730.22;5066849;27;45453;-73
2023/03/25 10:01:56;;;;;;;;;1.00;1.00;;;;;13.90;49.61;100740.09;5075822;28;45325;-73
2023/03/25 10:04:42;;;;;;;;;2.67;0.00;;;;;13.85;49.75;100737.34;5071389;27;46651;-71
2023/03/25 10:07:27;;;;;;;;;2.67;1.33;;;;;13.78;50.38;100747.09;5082061;27;47334;-73
2023/03/25 10:10:21;;;;;;;;;1.00;1.00;;;;;13.80;50.51;100761.44;5075291;28;45236;-73
2023/03/25 10:12:51;;;;;;;;;2.00;0.00;;;;;13.72;50.32;100716.56;5068643;28;45364;-70
2023/03/25 10:15:39;;;;;;;;;0.00;0.00;;;;;13.91;50.08;100748.16;5074010;27;45634;-74
2023/03/25 10:18:20;;;;;;;;;2.33;1.00;;;;;13.94;50.45;100755.34;5070704;28;46409;-72
2023/03/25 10:21:00;;;;;;;;;1.67;1.00;;;;;13.96;50.39;100756.28;5075195;27;45591;-73
2023/03/25 10:23:36;;;;;;;;;3.33;2.00;;;;;13.96;50.55;100749.13;5076874;27;45493;-74
2023/03/25 10:26:09;;;;;;;;;5.67;0.67;;;;;14.12;50.46;100747.53;5076717;27;45282;-74
2023/03/25 10:28:47;;;;;;;;;3.33;0.67;;;;;14.00;49.36;100718.72;5073069;27;45544;-75
2023/03/25 10:31:19;;;;;;;;;3.00;1.00;;;;;14.30;47.92;100751.28;5072213;28;45880;-74
2023/03/25 10:33:56;;;;;;;;;3.00;1.00;;;;;14.23;48.12;100733.31;5074831;27;45591;-73
2023/03/25 10:36:32;;;;;;;;;4.67;1.00;;;;;14.41;47.55;100733.50;5078704;27;45507;-75
2023/03/25 10:39:00;;;;;;;;;2.33;1.00;;;;;14.58;46.96;100747.09;5073066;28;46147;-70
2023/03/25 10:41:34;;;;;;;;;1.00;1.00;;;;;14.60;46.38;100741.78;5062369;27;45467;-74
2023/03/25 10:44:00;;;;;;;;;2.33;1.00;;;;;14.72;46.44;100749.97;5067765;28;45456;-71
2023/03/25 10:46:46;;;;;;;;;10.00;6.67;;;;;14.73;46.30;100739.25;5069194;28;45511;-71
2023/03/25 10:49:23;;;;;;;;;3.00;3.00;;;;;14.81;46.17;100751.84;5074134;27;45412;-69
2023/03/25 10:51:56;;;;;;;;;1.00;0.33;;;;;14.74;46.44;100737.44;5072863;27;45569;-73
2023/03/25 10:54:30;;;;;;;;;3.67;2.00;;;;;14.78;46.34;100746.44;5079880;28;45306;-71
2023/03/25 10:57:01;;;;;;;;;2.67;1.67;;;;;14.75;46.61;100728.50;5085728;28;45252;-73
2023/03/25 10:59:49;;;;;;;;;2.00;0.00;;;;;14.88;46.33;100751.00;5092437;27;46098;-71
2023/03/25 11:02:19;;;;;;;;;1.00;1.00;;;;;14.86;46.19;100756.34;5092921;27;45040;-76
2023/03/25 11:04:48;;;;;;;;;3.00;3.00;;;;;14.86;46.89;100758.16;5092147;27;45162;-67
2023/03/25 11:07:38;;;;;;;;;2.33;2.33;;;;;14.84;46.85;100752.75;5085035;27;45085;-74
2023/03/25 11:10:23;;;;;;;;;3.00;3.00;;;;;14.92;45.78;100755.53;5088645;28;47065;-71
2023/03/25 11:12:51;;;;;;;;;4.00;2.00;;;;;14.92;45.76;100752.84;5082447;27;45409;-72
2023/03/25 11:15:23;;;;;;;;;5.33;2.67;;;;;14.95;45.79;100746.56;5072336;28;45233;-72
2023/03/25 11:18:04;;;;;;;;;2.00;1.00;;;;;14.99;45.72;100752.00;5066942;28;46326;-71
2023/03/25 11:20:37;;;;;;;;;4.33;3.33;;;;;15.09;45.77;100758.34;5061551;28;45588;-72
2023/03/25 11:23:36;;;;;;;;;1.67;0.33;;;;;15.09;45.49;100753.88;5073570;27;45567;-71
2023/03/25 11:26:17;;;;;;;;;1.00;1.00;;;;;15.16;45.06;100757.50;5072616;28;45398;-69
2023/03/25 11:28:45;;;;;;;;;7.67;2.00;;;;;15.22;44.79;100753.97;5071671;27;45581;-71
2023/03/25 11:31:21;;;;;;;;;0.33;0.33;;;;;15.29;44.90;100761.19;5062749;28;45592;-71
2023/03/25 11:34:06;;;;;;;;;4.67;1.00;;;;;15.28;44.63;100746.84;5066560;28;45500;-70
2023/03/25 11:36:36;;;;;;;;;0.67;0.67;;;;;15.32;44.92;100766.59;5072977;28;45480;-70
2023/03/25 11:39:18;;;;;;;;;2.00;1.67;;;;;15.18;45.74;100747.66;5073918;27;45523;-69